This is the latest recevied weather packets stored in our database for station/object OK2ILA-14. If no packets are shown the sender has not sent any weather packets the latest 1 day(s).
| Time | Temp. | Humidity | Pressure | Rain* | Wind** | Luminosity | Snow |
|---|---|---|---|---|---|---|---|
| 1778072648 | 26.67° C | 34% | 1006.1 hPa | - | - | - | - |
| 1778071448 | 26.67° C | 35% | 1006.3 hPa | - | - | - | - |
| 1778067847 | 25.56° C | 37% | 1006.3 hPa | - | - | - | - |
| 1778064846 | 24.44° C | 41% | 1006.3 hPa | - | - | - | - |
| 1778064246 | 24.44° C | 41% | 1006.4 hPa | - | - | - | - |
| 1778063646 | 23.89° C | 42% | 1006.5 hPa | - | - | - | - |
| 1778061245 | 23.33° C | 47% | 1006.8 hPa | - | - | - | - |
| 1778060045 | 22.78° C | 48% | 1006.8 hPa | - | - | - | - |
| 1778058300 | 22.22° C | 48% | 1006.8 hPa | - | - | - | - |
| 1778057700 | 21.67° C | 48% | 1006.7 hPa | - | - | - | - |
| 1778057100 | 20.56° C | 50% | 1006.7 hPa | - | - | - | - |
| 1778054699 | 21.67° C | 51% | 1006.3 hPa | - | - | - | - |
| 1778054099 | 21.11° C | 53% | 1006.3 hPa | - | - | - | - |
| 1778052300 | 20° C | 56% | 1006.2 hPa | - | - | - | - |
| 1778049897 | 19.44° C | 56% | 1006.4 hPa | - | - | - | - |
| 1778037887 | 13.33° C | 70% | 1005.1 hPa | - | - | - | - |
| 1778036076 | 13.33° C | 70% | 1004.9 hPa | - | - | - | - |
| 1778035472 | 12.78° C | 71% | 1005 hPa | - | - | - | - |
| 1778034871 | 12.22° C | 72% | 1005 hPa | - | - | - | - |
| 1778034261 | 12.22° C | 70% | 1005.1 hPa | - | - | - | - |
| 1778033661 | 12.78° C | 68% | 1005 hPa | - | - | - | - |
| 1778031260 | 12.78° C | 67% | 1005.2 hPa | - | - | - | - |
| 1778030660 | 13.33° C | 66% | 1005.2 hPa | - | - | - | - |
| 1778030060 | 13.33° C | 65% | 1005.2 hPa | - | - | - | - |
| 1778029460 | 13.33° C | 65% | 1005.1 hPa | - | - | - | - |
* Rain since midnight (hover to see other rain measurements)
** Current wind speed in m/s (hover to see current wind gust speed)